Time;durP1;ratioP1;P1;durP2;ratioP2;P2;SDS_P1;SDS_P2;PMS_P1;PMS_P2;Temp;Humidity;BMP_temperature;BMP_pressure;BME280_temperature;BME280_humidity;BME280_pressure;Samples;Min_cycle;Max_cycle;Signal;HPM_P1;HPM_P2
2022/04/11 00:01:21;;;;;;;12.27;8.57;;;;;;;;;;5041194;28;20032;-84
2022/04/11 00:03:47;;;;;;;11.00;8.57;;;;;;;;;;5041017;28;20066;-83
2022/04/11 00:06:12;;;;;;;10.80;8.05;;;;;;;;;;5040803;28;20036;-84
2022/04/11 00:08:38;;;;;;;10.50;7.88;;;;;;;;;;5040938;28;20480;-84
2022/04/11 00:11:04;;;;;;;9.38;7.18;;;;;;;;;;5058281;28;20044;-84
2022/04/11 00:13:29;;;;;;;9.75;7.18;;;;;;;;;;5040128;28;20070;-84
2022/04/11 00:15:54;;;;;;;11.80;7.57;;;;;;;;;;5058466;28;20036;-84
2022/04/11 00:18:20;;;;;;;8.80;6.90;;;;;;;;;;5077475;28;20048;-85
2022/04/11 00:20:47;;;;;;;9.13;6.55;;;;;;;;;;5077124;28;20035;-84
2022/04/11 00:23:13;;;;;;;10.60;6.97;;;;;;;;;;5076678;28;20032;-84
2022/04/11 00:25:38;;;;;;;10.18;6.97;;;;;;;;;;5094132;28;20078;-84
2022/04/11 00:28:03;;;;;;;8.23;6.65;;;;;;;;;;5077265;28;20035;-84
2022/04/11 00:30:29;;;;;;;8.90;6.60;;;;;;;;;;5056171;28;20512;-84
2022/04/11 00:32:54;;;;;;;9.27;6.45;;;;;;;;;;5038879;28;20032;-84
2022/04/11 00:35:20;;;;;;;9.45;6.40;;;;;;;;;;5023180;28;20085;-84
2022/04/11 00:37:45;;;;;;;9.95;7.13;;;;;;;;;;5040364;28;20131;-84
2022/04/11 00:40:11;;;;;;;9.05;6.07;;;;;;;;;;5040430;28;20038;-84
2022/04/11 00:42:37;;;;;;;8.23;6.43;;;;;;;;;;5040548;28;20036;-83
2022/04/11 00:45:03;;;;;;;9.27;6.45;;;;;;;;;;5040781;28;20058;-84
2022/04/11 00:47:29;;;;;;;7.60;5.78;;;;;;;;;;5024377;28;20036;-83
2022/04/11 00:49:56;;;;;;;8.40;5.72;;;;;;;;;;5065684;28;20062;-83
2022/04/11 00:52:21;;;;;;;7.30;5.70;;;;;;;;;;5044063;28;20032;-84
2022/04/11 00:54:47;;;;;;;7.43;5.25;;;;;;;;;;5060470;28;20042;-84
2022/04/11 00:57:13;;;;;;;7.95;5.63;;;;;;;;;;5073212;28;20049;-83
2022/04/11 00:59:38;;;;;;;8.20;5.38;;;;;;;;;;5023520;28;20034;-84
2022/04/11 01:02:04;;;;;;;6.82;4.75;;;;;;;;;;5023791;28;20397;-83
2022/04/11 01:04:30;;;;;;;6.97;5.10;;;;;;;;;;5056937;28;20620;-84
2022/04/11 01:06:56;;;;;;;7.07;5.10;;;;;;;;;;5060928;28;20032;-83
2022/04/11 01:09:25;;;;;;;6.38;5.20;;;;;;;;;;5044378;28;20386;-84
2022/04/11 01:11:53;;;;;;;7.57;5.10;;;;;;;;;;5044096;28;20101;-84
2022/04/11 01:14:19;;;;;;;6.65;4.72;;;;;;;;;;5061093;28;20085;-84
2022/04/11 01:16:51;;;;;;;6.72;4.95;;;;;;;;;;5069230;28;20036;-83
2022/04/11 01:19:16;;;;;;;6.68;4.90;;;;;;;;;;5063996;28;20401;-83
2022/04/11 01:21:45;;;;;;;5.75;4.22;;;;;;;;;;5047819;28;20039;-84
2022/04/11 01:24:11;;;;;;;6.07;4.47;;;;;;;;;;5047902;28;20032;-84
2022/04/11 01:26:37;;;;;;;6.28;4.78;;;;;;;;;;5080662;28;20104;-83
2022/04/11 01:29:04;;;;;;;6.85;4.57;;;;;;;;;;5079376;28;20032;-83
2022/04/11 01:31:29;;;;;;;5.40;4.10;;;;;;;;;;5043539;28;20067;-84
2022/04/11 01:33:55;;;;;;;7.75;4.85;;;;;;;;;;5043758;28;20401;-83
2022/04/11 01:36:20;;;;;;;7.25;4.43;;;;;;;;;;5043905;28;20508;-84
2022/04/11 01:38:45;;;;;;;5.88;3.58;;;;;;;;;;5043711;28;20059;-84
2022/04/11 01:41:11;;;;;;;7.93;4.63;;;;;;;;;;5043728;28;20051;-83
2022/04/11 01:43:36;;;;;;;6.15;4.20;;;;;;;;;;5045032;28;20383;-84
2022/04/11 01:46:02;;;;;;;5.32;3.80;;;;;;;;;;5043592;28;20040;-84
2022/04/11 01:48:27;;;;;;;6.57;4.05;;;;;;;;;;5059353;28;20040;-84
2022/04/11 01:50:53;;;;;;;5.90;3.55;;;;;;;;;;5043706;28;20040;-84
2022/04/11 01:53:19;;;;;;;6.88;4.10;;;;;;;;;;5059780;28;20514;-83
2022/04/11 01:55:45;;;;;;;5.68;4.13;;;;;;;;;;5045621;28;20040;-84
2022/04/11 01:58:10;;;;;;;4.90;3.35;;;;;;;;;;5063030;28;20043;-83
2022/04/11 02:00:36;;;;;;;6.63;3.58;;;;;;;;;;5063371;28;20043;-83
2022/04/11 02:03:02;;;;;;;5.05;3.05;;;;;;;;;;5063310;28;20032;-84
2022/04/11 02:05:28;;;;;;;5.18;3.58;;;;;;;;;;5080326;28;20521;-83
2022/04/11 02:07:54;;;;;;;5.15;3.40;;;;;;;;;;5096377;28;20409;-84
2022/04/11 02:10:19;;;;;;;4.80;3.25;;;;;;;;;;5079453;28;20138;-81
2022/04/11 02:12:45;;;;;;;5.38;3.15;;;;;;;;;;5080049;28;20027;-81
2022/04/11 02:15:11;;;;;;;4.90;3.05;;;;;;;;;;5078842;28;20481;-81
2022/04/11 02:17:36;;;;;;;5.43;3.10;;;;;;;;;;5073636;28;20506;-81
2022/04/11 02:20:02;;;;;;;4.53;3.22;;;;;;;;;;5076354;28;20028;-81
2022/04/11 02:22:29;;;;;;;6.13;3.30;;;;;;;;;;5059623;28;20067;-81
2022/04/11 02:24:55;;;;;;;4.28;3.17;;;;;;;;;;5080157;28;20047;-82
2022/04/11 02:27:20;;;;;;;4.68;3.05;;;;;;;;;;5079714;28;20035;-82
2022/04/11 02:29:45;;;;;;;4.68;3.00;;;;;;;;;;5079130;28;20039;-84
2022/04/11 02:32:11;;;;;;;5.25;3.13;;;;;;;;;;5079479;28;20463;-84
2022/04/11 02:34:39;;;;;;;4.32;2.70;;;;;;;;;;5063110;28;20122;-83
2022/04/11 02:37:04;;;;;;;3.83;2.63;;;;;;;;;;5079497;28;20421;-83
2022/04/11 02:39:30;;;;;;;4.72;2.75;;;;;;;;;;5059176;28;20036;-84
2022/04/11 02:41:55;;;;;;;3.95;2.63;;;;;;;;;;5042450;28;20043;-84
2022/04/11 02:44:20;;;;;;;4.35;2.65;;;;;;;;;;5059490;28;20409;-84
2022/04/11 02:46:46;;;;;;;4.10;2.53;;;;;;;;;;5059195;28;20036;-84
2022/04/11 02:49:11;;;;;;;4.30;3.00;;;;;;;;;;5042418;28;20035;-84
2022/04/11 02:51:36;;;;;;;4.45;2.45;;;;;;;;;;5042119;28;20040;-84
2022/04/11 02:54:07;;;;;;;4.82;2.65;;;;;;;;;;5042079;28;20070;-83
2022/04/11 02:56:33;;;;;;;3.60;2.25;;;;;;;;;;5052746;28;20035;-83
2022/04/11 02:58:58;;;;;;;3.85;2.50;;;;;;;;;;5062015;28;20027;-84
2022/04/11 03:01:24;;;;;;;4.55;2.80;;;;;;;;;;5045927;28;20046;-84
2022/04/11 03:03:49;;;;;;;3.33;1.85;;;;;;;;;;5062465;28;20047;-84
2022/04/11 03:06:14;;;;;;;3.60;2.28;;;;;;;;;;5061848;28;20039;-83
2022/04/11 03:08:40;;;;;;;4.68;2.65;;;;;;;;;;5062047;28;20409;-83
2022/04/11 03:11:05;;;;;;;3.75;2.13;;;;;;;;;;5078910;28;20040;-84
2022/04/11 03:13:31;;;;;;;3.15;1.90;;;;;;;;;;5044997;28;20032;-83
2022/04/11 03:15:56;;;;;;;3.47;2.08;;;;;;;;;;5061807;28;20043;-84
2022/04/11 03:18:21;;;;;;;4.28;2.40;;;;;;;;;;5045503;28;20493;-83
2022/04/11 03:20:47;;;;;;;2.95;1.90;;;;;;;;;;5061632;28;20039;-83
2022/04/11 03:23:15;;;;;;;3.40;2.13;;;;;;;;;;5061684;28;20123;-84
2022/04/11 03:25:40;;;;;;;3.08;1.80;;;;;;;;;;5062233;28;20435;-84
2022/04/11 03:28:07;;;;;;;3.63;2.00;;;;;;;;;;5061500;28;20039;-84
2022/04/11 03:30:32;;;;;;;3.63;2.20;;;;;;;;;;5078146;28;20039;-83
2022/04/11 03:32:57;;;;;;;3.58;2.13;;;;;;;;;;5057489;28;20460;-83
2022/04/11 03:35:23;;;;;;;4.28;2.03;;;;;;;;;;5074594;28;20044;-84
2022/04/11 03:37:48;;;;;;;3.00;1.83;;;;;;;;;;5025073;28;20486;-83
2022/04/11 03:40:14;;;;;;;4.10;2.00;;;;;;;;;;5041290;28;20101;-83
2022/04/11 03:42:39;;;;;;;3.20;2.15;;;;;;;;;;5074682;28;20044;-82
2022/04/11 03:45:08;;;;;;;3.00;1.70;;;;;;;;;;5058015;28;20540;-84
2022/04/11 03:47:33;;;;;;;3.10;1.90;;;;;;;;;;5058648;28;20063;-83
2022/04/11 03:49:59;;;;;;;3.30;1.73;;;;;;;;;;5057679;28;20040;-84
2022/04/11 03:52:25;;;;;;;3.17;1.90;;;;;;;;;;5074482;28;20508;-84
2022/04/11 03:54:50;;;;;;;3.15;1.95;;;;;;;;;;5057585;28;20035;-83
2022/04/11 03:57:16;;;;;;;3.97;2.05;;;;;;;;;;5069577;28;20050;-83
2022/04/11 03:59:41;;;;;;;2.78;1.90;;;;;;;;;;5057036;28;20047;-84
2022/04/11 04:02:06;;;;;;;3.33;1.92;;;;;;;;;;5057453;28;20118;-83
2022/04/11 04:04:32;;;;;;;2.97;1.67;;;;;;;;;;5040528;28;20059;-83
2022/04/11 04:06:57;;;;;;;3.65;2.20;;;;;;;;;;5057675;28;20118;-83
2022/04/11 04:09:23;;;;;;;3.50;1.80;;;;;;;;;;5057578;28;20079;-83
2022/04/11 04:11:48;;;;;;;3.10;1.80;;;;;;;;;;5057469;28;20050;-83
2022/04/11 04:14:14;;;;;;;3.55;2.13;;;;;;;;;;5040981;28;20163;-83
2022/04/11 04:16:39;;;;;;;3.05;1.27;;;;;;;;;;5081774;28;20088;-83
2022/04/11 04:19:05;;;;;;;3.22;1.88;;;;;;;;;;5060314;28;20050;-83
2022/04/11 04:21:30;;;;;;;2.67;1.48;;;;;;;;;;5077436;28;20056;-83
2022/04/11 04:23:55;;;;;;;3.20;1.77;;;;;;;;;;5077198;28;20047;-83
2022/04/11 04:26:21;;;;;;;3.35;1.40;;;;;;;;;;5061237;28;20043;-84
2022/04/11 04:28:46;;;;;;;3.10;1.50;;;;;;;;;;5076691;28;20043;-83
2022/04/11 04:31:12;;;;;;;2.60;1.60;;;;;;;;;;5073963;28;20032;-84
2022/04/11 04:33:37;;;;;;;2.60;1.50;;;;;;;;;;5040323;28;20051;-83
2022/04/11 04:36:03;;;;;;;2.88;1.52;;;;;;;;;;5040368;28;20047;-83
2022/04/11 04:38:28;;;;;;;3.03;1.50;;;;;;;;;;5040709;28;20047;-83
2022/04/11 04:40:53;;;;;;;4.07;2.00;;;;;;;;;;5056469;28;20035;-83
2022/04/11 04:43:19;;;;;;;4.05;1.90;;;;;;;;;;5040059;28;20044;-84
2022/04/11 04:45:45;;;;;;;2.47;1.20;;;;;;;;;;5056841;28;20433;-84
2022/04/11 04:48:11;;;;;;;2.70;1.33;;;;;;;;;;5048791;28;20036;-84
2022/04/11 04:50:36;;;;;;;3.45;1.42;;;;;;;;;;5073685;28;20059;-84
2022/04/11 04:53:01;;;;;;;2.83;1.40;;;;;;;;;;5056552;28;20587;-84
2022/04/11 04:55:27;;;;;;;3.45;1.90;;;;;;;;;;5056830;28;20086;-83
2022/04/11 04:57:52;;;;;;;3.53;1.52;;;;;;;;;;5060165;28;20081;-82
2022/04/11 05:00:18;;;;;;;3.15;1.70;;;;;;;;;;5076629;28;20424;-82
2022/04/11 05:02:43;;;;;;;2.95;1.38;;;;;;;;;;5077006;28;20032;-80
2022/04/11 05:05:10;;;;;;;8.98;1.40;;;;;;;;;;5043971;28;20061;-81
2022/04/11 05:07:35;;;;;;;4.28;1.80;;;;;;;;;;5077049;28;20028;-83
2022/04/11 05:10:02;;;;;;;6.28;1.80;;;;;;;;;;5043370;28;20038;-84
2022/04/11 05:12:27;;;;;;;8.50;1.50;;;;;;;;;;5072151;28;20036;-85
2022/04/11 05:14:53;;;;;;;2.60;1.40;;;;;;;;;;5038764;28;20516;-85
2022/04/11 05:17:18;;;;;;;2.85;1.40;;;;;;;;;;5054148;28;20365;-84
2022/04/11 05:19:44;;;;;;;7.70;1.88;;;;;;;;;;5058209;28;20127;-86
2022/04/11 05:22:09;;;;;;;3.22;1.33;;;;;;;;;;5077188;28;20414;-86
2022/04/11 05:24:34;;;;;;;5.35;1.73;;;;;;;;;;5060129;28;20027;-86
2022/04/11 05:27:01;;;;;;;6.60;1.65;;;;;;;;;;5060410;28;20038;-84
2022/04/11 05:29:26;;;;;;;6.55;2.08;;;;;;;;;;5042875;28;20032;-85
2022/04/11 05:31:52;;;;;;;7.43;2.47;;;;;;;;;;5059919;28;20076;-82
2022/04/11 05:34:18;;;;;;;3.72;1.42;;;;;;;;;;5043601;28;20168;-81
2022/04/11 05:36:43;;;;;;;8.48;1.70;;;;;;;;;;5059564;28;20047;-81
2022/04/11 05:39:08;;;;;;;7.32;1.50;;;;;;;;;;5059453;28;20036;-81
2022/04/11 05:41:34;;;;;;;4.95;1.55;;;;;;;;;;5076657;28;20529;-81
2022/04/11 05:43:59;;;;;;;3.97;1.65;;;;;;;;;;5076606;28;20038;-81
2022/04/11 05:46:25;;;;;;;5.10;1.83;;;;;;;;;;5037308;28;20040;-81
2022/04/11 05:48:50;;;;;;;3.95;2.17;;;;;;;;;;5054862;28;20036;-81
2022/04/11 05:51:15;;;;;;;7.35;2.30;;;;;;;;;;5072537;28;20036;-81
2022/04/11 05:53:41;;;;;;;3.97;2.05;;;;;;;;;;5026690;28;20024;-81
2022/04/11 05:56:07;;;;;;;5.68;2.55;;;;;;;;;;5031366;28;20046;-81
2022/04/11 05:58:33;;;;;;;4.65;2.05;;;;;;;;;;5062358;28;20032;-81
2022/04/11 06:01:00;;;;;;;7.82;2.42;;;;;;;;;;5062722;28;20053;-81
2022/04/11 06:03:25;;;;;;;5.20;2.03;;;;;;;;;;5079917;28;20024;-81
2022/04/11 06:05:51;;;;;;;4.07;1.90;;;;;;;;;;5079119;28;20035;-81
2022/04/11 06:08:16;;;;;;;4.78;1.50;;;;;;;;;;5079536;28;20035;-82
2022/04/11 06:10:44;;;;;;;4.15;1.85;;;;;;;;;;5063033;28;20035;-81
2022/04/11 06:13:09;;;;;;;5.25;1.55;;;;;;;;;;5079405;28;20031;-81
2022/04/11 06:15:34;;;;;;;7.53;2.00;;;;;;;;;;5078541;28;20039;-82
2022/04/11 06:18:00;;;;;;;9.60;2.00;;;;;;;;;;5059561;28;20043;-83
2022/04/11 06:20:25;;;;;;;6.70;1.80;;;;;;;;;;5059184;28;20063;-83
2022/04/11 06:22:51;;;;;;;7.25;1.90;;;;;;;;;;5093254;28;20028;-84
2022/04/11 06:25:16;;;;;;;6.47;2.55;;;;;;;;;;5042933;28;20035;-83
2022/04/11 06:27:41;;;;;;;16.98;6.10;;;;;;;;;;5061996;28;20040;-80
2022/04/11 06:30:07;;;;;;;10.48;5.45;;;;;;;;;;5077782;28;20035;-80
2022/04/11 06:32:33;;;;;;;10.52;5.05;;;;;;;;;;5079164;28;20028;-80
2022/04/11 06:34:58;;;;;;;11.88;5.75;;;;;;;;;;5076391;28;20122;-80
2022/04/11 06:37:43;;;;;;;9.95;5.95;;;;;;;;;;5049109;28;20063;-80
2022/04/11 06:40:28;;;;;;;12.02;5.38;;;;;;;;;;5062427;28;20040;-79
2022/04/11 06:43:14;;;;;;;11.18;4.78;;;;;;;;;;5077586;28;20032;-79
2022/04/11 06:46:00;;;;;;;9.55;4.90;;;;;;;;;;5077323;28;20036;-79
2022/04/11 06:48:45;;;;;;;11.60;5.10;;;;;;;;;;5062998;28;20043;-79
2022/04/11 06:51:31;;;;;;;9.60;3.97;;;;;;;;;;5049035;28;20055;-79
2022/04/11 06:54:17;;;;;;;7.68;4.30;;;;;;;;;;5064115;28;20086;-79
2022/04/11 06:57:03;;;;;;;9.15;4.45;;;;;;;;;;5064103;28;20039;-80
2022/04/11 06:59:48;;;;;;;8.70;4.40;;;;;;;;;;5076185;28;20040;-82
2022/04/11 07:02:36;;;;;;;8.50;4.43;;;;;;;;;;5062002;28;20540;-82
2022/04/11 07:05:21;;;;;;;6.78;3.05;;;;;;;;;;5064199;28;20078;-82
2022/04/11 07:08:08;;;;;;;6.78;3.45;;;;;;;;;;5077901;28;20051;-82
2022/04/11 07:10:54;;;;;;;7.82;3.97;;;;;;;;;;5064102;28;20042;-82
2022/04/11 07:13:40;;;;;;;6.72;3.38;;;;;;;;;;5064167;28;20040;-82
2022/04/11 07:16:25;;;;;;;7.93;3.20;;;;;;;;;;5078375;28;20036;-82
2022/04/11 07:19:11;;;;;;;5.97;3.25;;;;;;;;;;5063290;28;20147;-82
2022/04/11 07:21:57;;;;;;;6.93;2.85;;;;;;;;;;5076405;28;20086;-82
2022/04/11 07:24:42;;;;;;;7.60;2.75;;;;;;;;;;5063208;28;20078;-82
2022/04/11 07:27:28;;;;;;;4.45;2.60;;;;;;;;;;5063353;28;20138;-80
2022/04/11 07:30:14;;;;;;;7.45;2.90;;;;;;;;;;5075742;28;20040;-79
2022/04/11 07:33:00;;;;;;;4.13;2.35;;;;;;;;;;5076701;28;20356;-79
2022/04/11 07:35:46;;;;;;;5.88;2.38;;;;;;;;;;5061638;28;20054;-80
2022/04/11 07:38:32;;;;;;;5.28;2.53;;;;;;;;;;5062886;28;20533;-79
2022/04/11 07:41:17;;;;;;;4.07;2.28;;;;;;;;;;5063420;28;20040;-79
2022/04/11 07:44:03;;;;;;;5.70;1.83;;;;;;;;;;5076212;28;20028;-79
2022/04/11 07:46:49;;;;;;;5.88;2.28;;;;;;;;;;5063058;28;20039;-80
2022/04/11 07:49:35;;;;;;;3.55;1.60;;;;;;;;;;5063113;28;20414;-79
2022/04/11 07:52:21;;;;;;;4.40;2.05;;;;;;;;;;5061664;28;20052;-79
2022/04/11 07:55:08;;;;;;;5.57;1.90;;;;;;;;;;5062997;28;20032;-79
2022/04/11 07:57:54;;;;;;;4.35;2.10;;;;;;;;;;5060997;28;20174;-79
2022/04/11 08:00:39;;;;;;;5.97;1.83;;;;;;;;;;5062297;28;20077;-79
2022/04/11 08:03:25;;;;;;;4.25;1.88;;;;;;;;;;5061612;28;20044;-79
2022/04/11 08:06:11;;;;;;;4.43;1.90;;;;;;;;;;5061615;28;20042;-79
2022/04/11 08:08:56;;;;;;;3.20;1.48;;;;;;;;;;5060587;28;20409;-79
2022/04/11 08:11:42;;;;;;;4.55;1.58;;;;;;;;;;5062496;28;20509;-79
2022/04/11 08:14:29;;;;;;;5.10;2.05;;;;;;;;;;5047491;28;20068;-79
2022/04/11 08:17:15;;;;;;;3.78;1.73;;;;;;;;;;5076593;28;20067;-79
2022/04/11 08:20:02;;;;;;;3.08;1.55;;;;;;;;;;5062541;28;20531;-79
2022/04/11 08:22:49;;;;;;;4.32;1.80;;;;;;;;;;5063111;28;20132;-79
2022/04/11 08:25:34;;;;;;;4.15;1.85;;;;;;;;;;5061712;28;20036;-78
2022/04/11 08:28:20;;;;;;;3.40;1.45;;;;;;;;;;5075767;28;20066;-79
2022/04/11 08:31:06;;;;;;;3.75;1.75;;;;;;;;;;5060590;28;20170;-79
2022/04/11 08:33:51;;;;;;;3.05;1.50;;;;;;;;;;5076523;28;20464;-79
2022/04/11 08:36:37;;;;;;;4.75;1.67;;;;;;;;;;5048581;28;20502;-79
2022/04/11 08:39:23;;;;;;;5.93;1.50;;;;;;;;;;5076238;28;20039;-79
2022/04/11 08:42:09;;;;;;;3.72;1.58;;;;;;;;;;5061383;28;20109;-79
2022/04/11 08:44:54;;;;;;;3.95;1.50;;;;;;;;;;5062230;28;20533;-79
2022/04/11 08:47:40;;;;;;;3.55;1.30;;;;;;;;;;5061819;28;20402;-79
2022/04/11 08:50:26;;;;;;;3.08;1.25;;;;;;;;;;5062270;28;20044;-79
2022/04/11 08:53:12;;;;;;;2.75;1.00;;;;;;;;;;5060471;28;20061;-79
2022/04/11 08:55:58;;;;;;;2.80;1.25;;;;;;;;;;5061000;28;20047;-79
2022/04/11 08:58:44;;;;;;;3.05;0.98;;;;;;;;;;5074958;28;20033;-79
2022/04/11 09:01:29;;;;;;;4.05;1.42;;;;;;;;;;5061723;28;20043;-79
2022/04/11 09:04:15;;;;;;;2.65;1.00;;;;;;;;;;5062242;28;20032;-79
2022/04/11 09:07:01;;;;;;;3.88;1.58;;;;;;;;;;5075950;28;20056;-79
2022/04/11 09:09:47;;;;;;;4.90;1.48;;;;;;;;;;5088859;28;20040;-79
2022/04/11 09:12:33;;;;;;;2.58;1.17;;;;;;;;;;5061866;28;20560;-79
2022/04/11 09:15:19;;;;;;;2.40;1.00;;;;;;;;;;5075995;28;20430;-79
2022/04/11 09:18:05;;;;;;;2.72;0.90;;;;;;;;;;5061420;28;20101;-79
2022/04/11 09:20:51;;;;;;;1.83;0.90;;;;;;;;;;5075358;28;20506;-79
2022/04/11 09:23:36;;;;;;;2.47;0.93;;;;;;;;;;5075003;28;20476;-79
2022/04/11 09:26:23;;;;;;;2.50;0.90;;;;;;;;;;5061868;28;20090;-79
2022/04/11 09:29:09;;;;;;;2.85;1.05;;;;;;;;;;5079629;28;20133;-79
2022/04/11 09:32:04;;;;;;;2.42;0.90;;;;;;;;;;5079210;28;20036;-79
2022/04/11 09:34:54;;;;;;;3.22;0.80;;;;;;;;;;5078398;28;20036;-79
2022/04/11 09:37:42;;;;;;;3.38;1.25;;;;;;;;;;5077960;28;20095;-79
2022/04/11 09:40:28;;;;;;;2.65;1.33;;;;;;;;;;5091778;28;20036;-79
2022/04/11 09:43:16;;;;;;;1.33;0.60;;;;;;;;;;5078731;28;20047;-79
2022/04/11 09:46:03;;;;;;;2.67;0.77;;;;;;;;;;5064883;28;20036;-79
2022/04/11 09:48:50;;;;;;;2.00;0.80;;;;;;;;;;5078678;28;20044;-79
2022/04/11 09:51:36;;;;;;;1.17;0.60;;;;;;;;;;5065636;28;20055;-79
2022/04/11 09:54:25;;;;;;;2.72;0.73;;;;;;;;;;5064511;28;20379;-79
2022/04/11 09:57:13;;;;;;;2.38;0.80;;;;;;;;;;5064016;28;20044;-79
2022/04/11 10:00:00;;;;;;;1.90;0.90;;;;;;;;;;5065235;28;20426;-79
2022/04/11 10:02:48;;;;;;;1.58;0.60;;;;;;;;;;5078906;28;20498;-79
2022/04/11 10:05:35;;;;;;;2.13;0.60;;;;;;;;;;5078752;28;20105;-79
2022/04/11 10:08:22;;;;;;;1.70;0.60;;;;;;;;;;5077553;28;20659;-79
2022/04/11 10:11:09;;;;;;;1.73;0.57;;;;;;;;;;5064613;28;20035;-80
2022/04/11 10:13:55;;;;;;;1.85;0.60;;;;;;;;;;5077871;28;20089;-79
2022/04/11 10:16:44;;;;;;;2.28;0.70;;;;;;;;;;5077853;28;20105;-79
2022/04/11 10:19:31;;;;;;;1.52;0.70;;;;;;;;;;5065998;28;20482;-79
2022/04/11 10:22:26;;;;;;;3.05;0.82;;;;;;;;;;5064685;28;20051;-79
2022/04/11 10:25:12;;;;;;;2.55;0.73;;;;;;;;;;5077589;28;20051;-79
2022/04/11 10:28:16;;;;;;;1.60;0.70;;;;;;;;;;5077974;28;20032;-79
2022/04/11 10:31:10;;;;;;;2.65;0.55;;;;;;;;;;5077202;28;20131;-79
2022/04/11 10:33:56;;;;;;;2.30;0.63;;;;;;;;;;5064268;28;20115;-79
2022/04/11 10:36:41;;;;;;;1.98;0.77;;;;;;;;;;5077905;28;20131;-79
2022/04/11 10:39:29;;;;;;;1.20;0.52;;;;;;;;;;5062487;28;20119;-79
2022/04/11 10:42:25;;;;;;;2.38;0.90;;;;;;;;;;5077901;28;20082;-79
2022/04/11 10:45:28;;;;;;;1.30;0.55;;;;;;;;;;5065387;28;20048;-79
2022/04/11 10:48:13;;;;;;;2.35;0.80;;;;;;;;;;5077293;28;20036;-79
2022/04/11 10:50:59;;;;;;;2.33;0.95;;;;;;;;;;5063928;28;20048;-79
2022/04/11 10:54:23;;;;;;;2.00;0.50;;;;;;;;;;5077595;28;20048;-79
2022/04/11 10:57:09;;;;;;;1.60;0.60;;;;;;;;;;4984269;28;20423;-79
2022/04/11 11:00:18;;;;;;;1.10;0.50;;;;;;;;;;4970079;28;20041;-79
2022/04/11 11:03:06;;;;;;;1.80;0.65;;;;;;;;;;5076612;28;20044;-79
2022/04/11 11:05:52;;;;;;;2.17;0.50;;;;;;;;;;5062991;28;20032;-78
2022/04/11 11:08:38;;;;;;;1.92;0.75;;;;;;;;;;5064042;28;20457;-79
2022/04/11 11:11:25;;;;;;;1.48;0.60;;;;;;;;;;5063669;28;20036;-79
2022/04/11 11:14:42;;;;;;;1.40;0.30;;;;;;;;;;5076518;28;20040;-79
2022/04/11 11:17:56;;;;;;;2.05;0.60;;;;;;;;;;5090541;28;20074;-79
2022/04/11 11:20:53;;;;;;;1.77;0.60;;;;;;;;;;5089780;28;20387;-79
2022/04/11 11:23:39;;;;;;;1.45;0.45;;;;;;;;;;5077710;28;20047;-79
2022/04/11 11:26:26;;;;;;;1.65;0.60;;;;;;;;;;5062740;28;20102;-80
2022/04/11 11:29:26;;;;;;;1.33;0.47;;;;;;;;;;5063208;28;20040;-79
2022/04/11 11:32:14;;;;;;;1.20;0.40;;;;;;;;;;5090726;28;20123;-79
2022/04/11 11:35:00;;;;;;;1.00;0.40;;;;;;;;;;5077387;28;20040;-79
2022/04/11 11:37:46;;;;;;;1.13;0.40;;;;;;;;;;5077058;28;20044;-79
2022/04/11 11:40:31;;;;;;;1.27;0.40;;;;;;;;;;5076262;28;20074;-79
2022/04/11 11:43:18;;;;;;;1.13;0.30;;;;;;;;;;5075507;28;20048;-79
2022/04/11 11:46:07;;;;;;;1.73;0.40;;;;;;;;;;5076433;28;20039;-79
2022/04/11 11:48:54;;;;;;;1.15;0.32;;;;;;;;;;5075894;28;20035;-79
2022/04/11 11:51:40;;;;;;;1.73;0.63;;;;;;;;;;5076821;28;20410;-79
2022/04/11 11:54:37;;;;;;;0.68;0.25;;;;;;;;;;5061759;28;20418;-79
2022/04/11 11:57:27;;;;;;;1.65;0.40;;;;;;;;;;5090097;28;20047;-79
2022/04/11 12:00:13;;;;;;;2.47;0.60;;;;;;;;;;5076892;28;20573;-79
2022/04/11 12:06:03;;;;;;;1.05;0.43;;;;;;;;;;5078840;28;20036;-79
2022/04/11 12:08:56;;;;;;;1.58;0.50;;;;;;;;;;5047618;28;20093;-79
2022/04/11 12:11:42;;;;;;;0.85;0.40;;;;;;;;;;5063687;28;20044;-79
2022/04/11 12:14:27;;;;;;;1.77;0.40;;;;;;;;;;5062310;28;20498;-78
2022/04/11 12:17:13;;;;;;;1.67;0.57;;;;;;;;;;5061089;28;20497;-79
2022/04/11 12:20:18;;;;;;;1.15;0.57;;;;;;;;;;5061499;28;20036;-79
2022/04/11 12:23:11;;;;;;;1.90;0.50;;;;;;;;;;5076003;28;20048;-79
2022/04/11 12:25:57;;;;;;;0.85;0.30;;;;;;;;;;5075578;28;20032;-79
2022/04/11 12:28:43;;;;;;;0.95;0.30;;;;;;;;;;5062319;28;20124;-79
2022/04/11 12:31:28;;;;;;;1.58;0.60;;;;;;;;;;5061616;28;20032;-79
2022/04/11 12:34:15;;;;;;;1.25;0.45;;;;;;;;;;5073963;28;20464;-79
2022/04/11 12:37:02;;;;;;;1.27;0.55;;;;;;;;;;5061529;28;20036;-79
2022/04/11 12:39:48;;;;;;;1.02;0.30;;;;;;;;;;5062046;28;20123;-79
2022/04/11 12:42:36;;;;;;;1.48;0.50;;;;;;;;;;5075082;28;20452;-79
2022/04/11 12:45:22;;;;;;;1.42;0.40;;;;;;;;;;5063029;28;20106;-79
2022/04/11 12:48:08;;;;;;;0.68;0.30;;;;;;;;;;5060848;28;20043;-79
2022/04/11 12:50:54;;;;;;;1.13;0.50;;;;;;;;;;5061454;28;20044;-79
2022/04/11 12:53:40;;;;;;;1.17;0.30;;;;;;;;;;5075576;28;20097;-79
2022/04/11 12:56:33;;;;;;;0.95;0.52;;;;;;;;;;5046889;28;20040;-79
2022/04/11 12:59:31;;;;;;;1.38;0.30;;;;;;;;;;5074866;28;20047;-79
2022/04/11 13:02:18;;;;;;;1.10;0.20;;;;;;;;;;5061007;28;20044;-79
2022/04/11 13:05:05;;;;;;;1.17;0.40;;;;;;;;;;5047314;28;20040;-80
2022/04/11 13:07:50;;;;;;;1.85;0.47;;;;;;;;;;5048396;28;20113;-79
2022/04/11 13:10:36;;;;;;;1.10;0.55;;;;;;;;;;5061420;28;20043;-79
2022/04/11 13:13:23;;;;;;;1.02;0.60;;;;;;;;;;5061492;28;20071;-79
2022/04/11 13:19:13;;;;;;;1.13;0.40;;;;;;;;;;5077763;28;20044;-79
2022/04/11 13:22:00;;;;;;;0.60;0.28;;;;;;;;;;5061336;28;20439;-79
2022/04/11 13:24:47;;;;;;;0.70;0.30;;;;;;;;;;5062197;28;20122;-79
2022/04/11 13:27:33;;;;;;;0.68;0.35;;;;;;;;;;5048868;28;20035;-80
2022/04/11 13:30:19;;;;;;;0.65;0.22;;;;;;;;;;5060434;28;20529;-79
2022/04/11 13:33:05;;;;;;;0.90;0.20;;;;;;;;;;5060942;28;20047;-79
2022/04/11 13:35:50;;;;;;;1.02;0.30;;;;;;;;;;5075868;28;20094;-79
2022/04/11 13:38:36;;;;;;;0.60;0.20;;;;;;;;;;5076082;28;20417;-79
2022/04/11 13:41:22;;;;;;;1.67;0.35;;;;;;;;;;5062432;28;20498;-80
2022/04/11 13:44:08;;;;;;;0.75;0.28;;;;;;;;;;5061758;28;20138;-80
2022/04/11 13:46:54;;;;;;;0.90;0.30;;;;;;;;;;5046932;28;20119;-79
2022/04/11 13:49:40;;;;;;;1.02;0.30;;;;;;;;;;5074588;28;20040;-79
2022/04/11 13:52:26;;;;;;;0.43;0.20;;;;;;;;;;5048463;28;20048;-80
2022/04/11 13:55:11;;;;;;;1.30;0.30;;;;;;;;;;5062044;28;20040;-79
2022/04/11 13:57:57;;;;;;;1.00;0.15;;;;;;;;;;5076175;28;20398;-79
2022/04/11 14:00:43;;;;;;;1.40;0.40;;;;;;;;;;5061336;28;20059;-79
2022/04/11 14:03:29;;;;;;;0.77;0.30;;;;;;;;;;5061812;28;20421;-79
2022/04/11 14:06:14;;;;;;;0.38;0.20;;;;;;;;;;5061539;28;20043;-79
2022/04/11 14:09:01;;;;;;;1.48;0.30;;;;;;;;;;5060343;28;20502;-80
2022/04/11 14:11:48;;;;;;;2.35;0.43;;;;;;;;;;5069833;28;20037;-79
2022/04/11 14:14:34;;;;;;;0.52;0.25;;;;;;;;;;5063355;28;20044;-79
2022/04/11 14:17:19;;;;;;;1.30;0.28;;;;;;;;;;5078073;28;20044;-79
2022/04/11 14:20:07;;;;;;;0.90;0.38;;;;;;;;;;5064034;28;20051;-79
2022/04/11 14:22:52;;;;;;;0.60;0.20;;;;;;;;;;5064930;28;20132;-79
2022/04/11 14:25:38;;;;;;;0.32;0.17;;;;;;;;;;5063996;28;20044;-79
2022/04/11 14:28:24;;;;;;;0.63;0.17;;;;;;;;;;5063681;28;20570;-79
2022/04/11 14:31:11;;;;;;;0.80;0.30;;;;;;;;;;5064170;28;20077;-79
2022/04/11 14:33:56;;;;;;;0.40;0.20;;;;;;;;;;5078664;28;20032;-79
2022/04/11 14:36:42;;;;;;;0.65;0.30;;;;;;;;;;5063410;28;20090;-79
2022/04/11 14:39:29;;;;;;;0.98;0.30;;;;;;;;;;5077744;28;20509;-79
2022/04/11 14:42:16;;;;;;;1.23;0.25;;;;;;;;;;5078222;28;20509;-80
2022/04/11 14:45:02;;;;;;;0.93;0.28;;;;;;;;;;5064106;28;20076;-79
2022/04/11 14:47:47;;;;;;;0.80;0.20;;;;;;;;;;5063419;28;20036;-80
2022/04/11 14:50:34;;;;;;;0.75;0.30;;;;;;;;;;5077016;28;20040;-79
2022/04/11 14:53:19;;;;;;;0.73;0.20;;;;;;;;;;5063744;28;20143;-79
2022/04/11 14:56:05;;;;;;;1.15;0.30;;;;;;;;;;5062970;28;20074;-79
2022/04/11 14:58:51;;;;;;;1.35;0.30;;;;;;;;;;5063639;28;20040;-79
2022/04/11 15:01:36;;;;;;;0.60;0.40;;;;;;;;;;5077295;28;20039;-79
2022/04/11 15:04:22;;;;;;;1.30;0.20;;;;;;;;;;5077009;28;20036;-79
2022/04/11 15:07:08;;;;;;;1.00;0.30;;;;;;;;;;5062801;28;20036;-79
2022/04/11 15:09:54;;;;;;;0.85;0.30;;;;;;;;;;5076430;28;20040;-80
2022/04/11 15:12:39;;;;;;;0.98;0.25;;;;;;;;;;5076997;28;20055;-79
2022/04/11 15:15:25;;;;;;;0.68;0.20;;;;;;;;;;5076610;28;20443;-79
2022/04/11 15:18:11;;;;;;;1.42;0.40;;;;;;;;;;5077089;28;20490;-79
2022/04/11 15:20:57;;;;;;;0.95;0.30;;;;;;;;;;5077463;28;20422;-79
2022/04/11 15:23:42;;;;;;;0.80;0.20;;;;;;;;;;5076181;28;20414;-79
2022/04/11 15:26:28;;;;;;;0.75;0.20;;;;;;;;;;5062216;28;20422;-79
2022/04/11 15:29:14;;;;;;;2.40;0.30;;;;;;;;;;5063600;28;20395;-79
2022/04/11 15:32:00;;;;;;;0.60;0.20;;;;;;;;;;5076138;28;20089;-80
2022/04/11 15:34:46;;;;;;;0.68;0.28;;;;;;;;;;5062936;28;20039;-80
2022/04/11 15:37:34;;;;;;;0.70;0.20;;;;;;;;;;5076832;28;20051;-80
2022/04/11 15:40:20;;;;;;;0.63;0.30;;;;;;;;;;5077339;28;20059;-79
2022/04/11 15:43:05;;;;;;;0.47;0.10;;;;;;;;;;5063519;28;20094;-80
2022/04/11 15:45:51;;;;;;;0.77;0.20;;;;;;;;;;5076503;28;20082;-79
2022/04/11 15:48:37;;;;;;;0.45;0.10;;;;;;;;;;5063654;28;20032;-79
2022/04/11 15:51:22;;;;;;;0.70;0.30;;;;;;;;;;5062308;28;20051;-79